sensor_id;sensor_type;location;lat;lon;timestamp;pressure;altitude;pressure_sealevel;temperature;humidity
13767;BME280;47980;48.794;9.176;2022-09-09T01:41:28;97899.81;;;17.48;69.18
13767;BME280;47980;48.794;9.176;2022-09-09T01:44:36;97890.31;;;17.62;69.31
13767;BME280;47980;48.794;9.176;2022-09-09T02:36:59;97912.19;;;16.64;74.95
13767;BME280;47980;48.794;9.176;2022-09-09T04:01:46;97877.59;;;16.48;78.14
13767;BME280;47980;48.794;9.176;2022-09-09T04:04:18;97878.38;;;16.45;78.04
13767;BME280;47980;48.794;9.176;2022-09-09T04:06:50;97881.47;;;16.51;78.59
13767;BME280;47980;48.794;9.176;2022-09-09T04:09:23;97883.28;;;16.40;77.92
13767;BME280;47980;48.794;9.176;2022-09-09T04:11:54;97881.34;;;16.40;78.40
13767;BME280;47980;48.794;9.176;2022-09-09T04:14:26;97873.75;;;16.42;79.75
13767;BME280;47980;48.794;9.176;2022-09-09T04:17:03;97874.47;;;16.39;79.54
13767;BME280;47980;48.794;9.176;2022-09-09T04:19:36;97880.28;;;16.48;79.24
13767;BME280;47980;48.794;9.176;2022-09-09T04:22:08;97882.63;;;16.53;78.85
13767;BME280;47980;48.794;9.176;2022-09-09T04:27:58;97891.06;;;16.55;77.75
13767;BME280;47980;48.794;9.176;2022-09-09T04:30:30;97899.63;;;16.72;77.23
13767;BME280;47980;48.794;9.176;2022-09-09T04:33:03;97896.13;;;16.64;76.98
13767;BME280;47980;48.794;9.176;2022-09-09T04:35:36;97890.00;;;16.64;77.56
13767;BME280;47980;48.794;9.176;2022-09-09T04:38:08;97901.50;;;16.68;76.02
13767;BME280;47980;48.794;9.176;2022-09-09T04:44:23;97897.47;;;16.84;75.89
13767;BME280;47980;48.794;9.176;2022-09-09T04:46:54;97898.22;;;16.81;76.35
13767;BME280;47980;48.794;9.176;2022-09-09T04:49:29;97896.56;;;16.73;76.01
13767;BME280;47980;48.794;9.176;2022-09-09T04:52:02;97902.75;;;16.77;75.31
13767;BME280;47980;48.794;9.176;2022-09-09T04:54:34;97913.09;;;16.75;76.43
13767;BME280;47980;48.794;9.176;2022-09-09T05:00:33;97899.41;;;16.47;77.09
13767;BME280;47980;48.794;9.176;2022-09-09T05:03:07;97905.19;;;16.49;77.39
13767;BME280;47980;48.794;9.176;2022-09-09T05:05:45;97909.00;;;16.51;78.10
13767;BME280;47980;48.794;9.176;2022-09-09T05:08:19;97912.06;;;16.50;77.61
13767;BME280;47980;48.794;9.176;2022-09-09T05:11:18;97923.91;;;16.49;78.05
13767;BME280;47980;48.794;9.176;2022-09-09T05:14:09;97908.97;;;16.48;78.00
13767;BME280;47980;48.794;9.176;2022-09-09T05:16:44;97917.56;;;16.64;77.28
13767;BME280;47980;48.794;9.176;2022-09-09T05:19:50;97912.34;;;16.78;77.95
13767;BME280;47980;48.794;9.176;2022-09-09T05:22:26;97917.78;;;16.86;77.43
13767;BME280;47980;48.794;9.176;2022-09-09T05:24:57;97922.44;;;16.92;77.87
13767;BME280;47980;48.794;9.176;2022-09-09T05:27:34;97918.94;;;16.92;76.04
13767;BME280;47980;48.794;9.176;2022-09-09T05:30:07;97918.75;;;17.15;76.34
13767;BME280;47980;48.794;9.176;2022-09-09T05:32:39;97917.00;;;17.37;75.05
13767;BME280;47980;48.794;9.176;2022-09-09T05:35:22;97914.75;;;17.46;73.62
13767;BME280;47980;48.794;9.176;2022-09-09T05:37:59;97925.25;;;17.72;73.03
13767;BME280;47980;48.794;9.176;2022-09-09T05:40:32;97925.22;;;17.65;73.69
13767;BME280;47980;48.794;9.176;2022-09-09T05:43:03;97919.81;;;17.58;73.12
13767;BME280;47980;48.794;9.176;2022-09-09T05:45:35;97917.53;;;17.67;73.46
13767;BME280;47980;48.794;9.176;2022-09-09T05:48:06;97925.16;;;17.58;74.65
13767;BME280;47980;48.794;9.176;2022-09-09T05:50:38;97926.06;;;17.76;73.96
13767;BME280;47980;48.794;9.176;2022-09-09T05:53:11;97921.84;;;17.79;75.49
13767;BME280;47980;48.794;9.176;2022-09-09T05:55:43;97916.09;;;17.77;74.04
13767;BME280;47980;48.794;9.176;2022-09-09T05:58:15;97924.53;;;17.83;74.50
13767;BME280;47980;48.794;9.176;2022-09-09T06:00:47;97931.13;;;17.96;74.39
13767;BME280;47980;48.794;9.176;2022-09-09T06:03:19;97926.53;;;17.96;73.23
13767;BME280;47980;48.794;9.176;2022-09-09T06:05:57;97932.66;;;17.97;72.66
13767;BME280;47980;48.794;9.176;2022-09-09T06:08:34;97923.50;;;18.05;71.23
13767;BME280;47980;48.794;9.176;2022-09-09T06:11:08;97921.97;;;18.11;72.63
13767;BME280;47980;48.794;9.176;2022-09-09T06:13:41;97926.56;;;18.11;71.67
13767;BME280;47980;48.794;9.176;2022-09-09T06:16:16;97918.13;;;18.05;71.42
13767;BME280;47980;48.794;9.176;2022-09-09T06:18:47;97925.38;;;18.04;71.40
13767;BME280;47980;48.794;9.176;2022-09-09T06:21:20;97928.56;;;18.32;71.02
13767;BME280;47980;48.794;9.176;2022-09-09T06:23:53;97933.19;;;18.42;70.79
13767;BME280;47980;48.794;9.176;2022-09-09T06:26:26;97939.34;;;18.49;70.35
13767;BME280;47980;48.794;9.176;2022-09-09T06:29:01;97935.09;;;18.31;70.13
13767;BME280;47980;48.794;9.176;2022-09-09T06:31:35;97937.00;;;18.41;70.29
13767;BME280;47980;48.794;9.176;2022-09-09T06:34:08;97932.03;;;18.39;70.19
13767;BME280;47980;48.794;9.176;2022-09-09T06:36:40;97934.72;;;18.39;70.90
13767;BME280;47980;48.794;9.176;2022-09-09T06:39:14;97940.53;;;18.56;69.96
13767;BME280;47980;48.794;9.176;2022-09-09T06:41:45;97933.66;;;18.72;69.92
13767;BME280;47980;48.794;9.176;2022-09-09T06:44:17;97936.34;;;18.83;68.69
13767;BME280;47980;48.794;9.176;2022-09-09T06:46:49;97937.88;;;18.88;68.73
13767;BME280;47980;48.794;9.176;2022-09-09T06:49:20;97935.97;;;18.92;69.13
13767;BME280;47980;48.794;9.176;2022-09-09T06:51:52;97934.81;;;19.04;68.52
13767;BME280;47980;48.794;9.176;2022-09-09T06:54:25;97945.19;;;19.05;69.04
13767;BME280;47980;48.794;9.176;2022-09-09T06:56:57;97942.88;;;18.89;69.59
13767;BME280;47980;48.794;9.176;2022-09-09T06:59:30;97937.13;;;18.91;68.94
13767;BME280;47980;48.794;9.176;2022-09-09T07:02:02;97946.72;;;19.10;68.84
13767;BME280;47980;48.794;9.176;2022-09-09T07:04:33;97947.09;;;19.37;67.76
13767;BME280;47980;48.794;9.176;2022-09-09T07:07:05;97940.56;;;19.38;68.86
13767;BME280;47980;48.794;9.176;2022-09-09T07:09:39;97945.59;;;19.04;67.94
13767;BME280;47980;48.794;9.176;2022-09-09T07:12:12;97936.66;;;19.57;67.68
13767;BME280;47980;48.794;9.176;2022-09-09T07:14:43;97943.59;;;19.76;66.85
13767;BME280;47980;48.794;9.176;2022-09-09T07:17:15;97937.03;;;19.77;66.38
13767;BME280;47980;48.794;9.176;2022-09-09T07:19:46;97945.06;;;19.91;66.47
13767;BME280;47980;48.794;9.176;2022-09-09T07:22:18;97942.72;;;19.96;66.84
13767;BME280;47980;48.794;9.176;2022-09-09T07:24:51;97942.34;;;20.05;65.72
13767;BME280;47980;48.794;9.176;2022-09-09T07:27:23;97937.78;;;19.84;64.80
13767;BME280;47980;48.794;9.176;2022-09-09T07:29:55;97939.97;;;20.11;64.50
13767;BME280;47980;48.794;9.176;2022-09-09T07:32:27;97937.03;;;20.64;63.84
13767;BME280;47980;48.794;9.176;2022-09-09T07:35:00;97940.81;;;20.78;63.08
13767;BME280;47980;48.794;9.176;2022-09-09T07:37:32;97941.56;;;20.78;61.96
13767;BME280;47980;48.794;9.176;2022-09-09T07:40:05;97935.91;;;20.58;64.30
13767;BME280;47980;48.794;9.176;2022-09-09T07:42:37;97933.16;;;21.18;62.19
13767;BME280;47980;48.794;9.176;2022-09-09T07:45:08;97944.16;;;21.79;59.61
13767;BME280;47980;48.794;9.176;2022-09-09T07:47:40;97943.13;;;21.66;60.25
13767;BME280;47980;48.794;9.176;2022-09-09T07:50:14;97946.09;;;21.41;60.03
13767;BME280;47980;48.794;9.176;2022-09-09T07:52:46;97953.63;;;20.63;62.32
13767;BME280;47980;48.794;9.176;2022-09-09T07:55:19;97947.13;;;20.50;62.19
13767;BME280;47980;48.794;9.176;2022-09-09T07:57:52;97953.28;;;20.54;61.97
13767;BME280;47980;48.794;9.176;2022-09-09T08:00:24;97942.13;;;21.07;61.61
13767;BME280;47980;48.794;9.176;2022-09-09T08:02:55;97944.97;;;21.34;59.54
13767;BME280;47980;48.794;9.176;2022-09-09T08:05:27;97948.16;;;21.63;58.91
13767;BME280;47980;48.794;9.176;2022-09-09T08:07:59;97952.25;;;22.13;58.51
13767;BME280;47980;48.794;9.176;2022-09-09T08:10:32;97961.28;;;22.33;58.01
13767;BME280;47980;48.794;9.176;2022-09-09T08:13:04;97962.16;;;21.89;58.34
13767;BME280;47980;48.794;9.176;2022-09-09T08:15:36;97953.75;;;22.48;57.63
13767;BME280;47980;48.794;9.176;2022-09-09T08:18:07;97951.16;;;22.07;57.52
13767;BME280;47980;48.794;9.176;2022-09-09T08:20:39;97952.63;;;22.46;56.38
13767;BME280;47980;48.794;9.176;2022-09-09T08:23:10;97954.00;;;22.57;55.50
13767;BME280;47980;48.794;9.176;2022-09-09T08:25:43;97968.56;;;22.67;55.61
13767;BME280;47980;48.794;9.176;2022-09-09T08:28:15;97975.53;;;22.65;55.26
13767;BME280;47980;48.794;9.176;2022-09-09T08:30:47;97961.31;;;22.61;55.77
13767;BME280;47980;48.794;9.176;2022-09-09T08:33:19;97971.91;;;22.75;54.57
13767;BME280;47980;48.794;9.176;2022-09-09T08:35:50;97969.00;;;22.89;54.87
13767;BME280;47980;48.794;9.176;2022-09-09T08:38:23;97974.41;;;23.40;53.80
13767;BME280;47980;48.794;9.176;2022-09-09T08:41:00;97957.97;;;23.50;52.17
13767;BME280;47980;48.794;9.176;2022-09-09T08:43:36;97958.56;;;23.15;54.65
13767;BME280;47980;48.794;9.176;2022-09-09T08:46:10;97965.69;;;22.78;54.74
13767;BME280;47980;48.794;9.176;2022-09-09T08:48:50;97956.16;;;22.97;54.36
13767;BME280;47980;48.794;9.176;2022-09-09T08:51:26;97958.47;;;23.22;52.82
13767;BME280;47980;48.794;9.176;2022-09-09T08:54:02;97961.50;;;23.24;53.83
13767;BME280;47980;48.794;9.176;2022-09-09T08:56:36;97954.38;;;23.34;53.92
13767;BME280;47980;48.794;9.176;2022-09-09T08:59:11;97948.72;;;23.48;52.84
13767;BME280;47980;48.794;9.176;2022-09-09T09:01:54;97958.78;;;23.71;51.88
13767;BME280;47980;48.794;9.176;2022-09-09T09:04:45;97950.72;;;23.44;51.90
13767;BME280;47980;48.794;9.176;2022-09-09T09:07:31;97961.88;;;23.26;51.79
13767;BME280;47980;48.794;9.176;2022-09-09T09:10:11;97966.47;;;22.51;52.72
13767;BME280;47980;48.794;9.176;2022-09-09T09:12:48;97972.25;;;22.50;53.62
13767;BME280;47980;48.794;9.176;2022-09-09T09:15:23;97964.28;;;22.70;52.41
13767;BME280;47980;48.794;9.176;2022-09-09T09:17:56;97968.66;;;22.60;51.74
13767;BME280;47980;48.794;9.176;2022-09-09T09:20:38;97964.66;;;22.68;52.70
13767;BME280;47980;48.794;9.176;2022-09-09T09:23:17;97964.75;;;22.61;53.89
13767;BME280;47980;48.794;9.176;2022-09-09T09:25:56;97958.16;;;22.35;55.55
13767;BME280;47980;48.794;9.176;2022-09-09T09:28:32;97968.28;;;21.59;57.02
13767;BME280;47980;48.794;9.176;2022-09-09T09:31:05;97980.66;;;21.53;57.39
13767;BME280;47980;48.794;9.176;2022-09-09T09:33:45;97979.41;;;21.20;58.76
13767;BME280;47980;48.794;9.176;2022-09-09T09:36:18;97985.44;;;20.86;61.69
13767;BME280;47980;48.794;9.176;2022-09-09T09:38:55;97978.91;;;20.80;59.51
13767;BME280;47980;48.794;9.176;2022-09-09T09:41:36;97973.66;;;20.58;59.40
13767;BME280;47980;48.794;9.176;2022-09-09T09:44:23;97969.91;;;20.34;56.93
13767;BME280;47980;48.794;9.176;2022-09-09T09:47:06;97954.47;;;21.05;55.85
13767;BME280;47980;48.794;9.176;2022-09-09T09:49:39;97953.69;;;21.91;54.65
13767;BME280;47980;48.794;9.176;2022-09-09T09:52:23;97943.19;;;22.30;52.82
13767;BME280;47980;48.794;9.176;2022-09-09T09:54:57;97949.06;;;22.22;50.73
13767;BME280;47980;48.794;9.176;2022-09-09T09:57:31;97939.34;;;22.28;52.39
13767;BME280;47980;48.794;9.176;2022-09-09T10:00:14;97933.34;;;22.71;50.39
13767;BME280;47980;48.794;9.176;2022-09-09T10:02:48;97935.16;;;22.50;50.28
13767;BME280;47980;48.794;9.176;2022-09-09T10:05:23;97925.78;;;22.58;51.40
13767;BME280;47980;48.794;9.176;2022-09-09T10:08:01;97927.78;;;23.05;50.91
13767;BME280;47980;48.794;9.176;2022-09-09T10:10:49;97925.69;;;22.93;51.80
13767;BME280;47980;48.794;9.176;2022-09-09T10:13:28;97920.75;;;23.11;50.37
13767;BME280;47980;48.794;9.176;2022-09-09T10:16:21;97921.38;;;23.42;50.71
13767;BME280;47980;48.794;9.176;2022-09-09T10:19:09;97925.72;;;23.36;50.28
13767;BME280;47980;48.794;9.176;2022-09-09T10:22:02;97912.13;;;23.40;50.13
13767;BME280;47980;48.794;9.176;2022-09-09T10:24:58;97904.28;;;23.45;52.06
13767;BME280;47980;48.794;9.176;2022-09-09T10:27:42;97911.13;;;23.73;52.34
13767;BME280;47980;48.794;9.176;2022-09-09T10:30:18;97905.00;;;24.25;50.83
13767;BME280;47980;48.794;9.176;2022-09-09T10:32:56;97907.56;;;24.16;51.69
13767;BME280;47980;48.794;9.176;2022-09-09T10:35:35;97917.16;;;24.37;50.06
13767;BME280;47980;48.794;9.176;2022-09-09T10:38:15;97914.63;;;24.30;48.83
13767;BME280;47980;48.794;9.176;2022-09-09T10:41:04;97909.00;;;24.41;49.87
13767;BME280;47980;48.794;9.176;2022-09-09T10:44:06;97910.47;;;23.46;51.82
13767;BME280;47980;48.794;9.176;2022-09-09T10:46:57;97916.16;;;23.32;52.73
13767;BME280;47980;48.794;9.176;2022-09-09T10:49:52;97913.94;;;23.46;52.90
13767;BME280;47980;48.794;9.176;2022-09-09T10:52:34;97916.78;;;23.59;53.27
13767;BME280;47980;48.794;9.176;2022-09-09T10:55:14;97917.34;;;24.10;52.53
13767;BME280;47980;48.794;9.176;2022-09-09T10:57:48;97908.91;;;23.88;50.32
13767;BME280;47980;48.794;9.176;2022-09-09T11:00:23;97913.13;;;24.45;51.37
13767;BME280;47980;48.794;9.176;2022-09-09T11:02:57;97910.09;;;24.23;52.16
13767;BME280;47980;48.794;9.176;2022-09-09T11:05:42;97906.72;;;24.88;50.61
13767;BME280;47980;48.794;9.176;2022-09-09T11:08:18;97902.66;;;24.80;48.23
13767;BME280;47980;48.794;9.176;2022-09-09T11:10:55;97907.38;;;24.76;49.41
13767;BME280;47980;48.794;9.176;2022-09-09T11:13:34;97925.47;;;24.30;49.67
13767;BME280;47980;48.794;9.176;2022-09-09T11:16:23;97919.63;;;23.32;49.38
13767;BME280;47980;48.794;9.176;2022-09-09T11:19:01;97919.50;;;22.65;50.41
13767;BME280;47980;48.794;9.176;2022-09-09T11:21:37;97927.84;;;21.90;52.44
13767;BME280;47980;48.794;9.176;2022-09-09T11:24:16;97941.69;;;21.57;52.46
13767;BME280;47980;48.794;9.176;2022-09-09T11:26:51;97951.31;;;21.58;52.06
13767;BME280;47980;48.794;9.176;2022-09-09T11:29:50;97940.63;;;21.03;51.02
13767;BME280;47980;48.794;9.176;2022-09-09T11:32:54;97945.03;;;21.24;50.75
13767;BME280;47980;48.794;9.176;2022-09-09T11:35:39;97941.66;;;21.61;51.46
13767;BME280;47980;48.794;9.176;2022-09-09T11:38:19;97961.28;;;21.65;52.47
13767;BME280;47980;48.794;9.176;2022-09-09T11:40:57;97960.50;;;21.20;53.39
13767;BME280;47980;48.794;9.176;2022-09-09T11:43:31;97968.03;;;21.46;53.77
13767;BME280;47980;48.794;9.176;2022-09-09T11:46:04;97957.03;;;21.64;52.99
13767;BME280;47980;48.794;9.176;2022-09-09T11:48:39;97956.53;;;21.76;53.12
13767;BME280;47980;48.794;9.176;2022-09-09T11:51:25;97946.03;;;21.48;54.82
13767;BME280;47980;48.794;9.176;2022-09-09T11:54:00;97952.53;;;21.54;53.96
13767;BME280;47980;48.794;9.176;2022-09-09T11:56:34;97947.97;;;21.81;53.32
13767;BME280;47980;48.794;9.176;2022-09-09T11:59:19;97948.69;;;21.85;53.38
13767;BME280;47980;48.794;9.176;2022-09-09T12:01:55;97942.00;;;21.63;53.21
13767;BME280;47980;48.794;9.176;2022-09-09T12:04:30;97936.75;;;21.86;52.80
13767;BME280;47980;48.794;9.176;2022-09-09T12:07:23;97938.38;;;22.42;51.76
13767;BME280;47980;48.794;9.176;2022-09-09T12:10:02;97934.25;;;22.88;50.15
13767;BME280;47980;48.794;9.176;2022-09-09T12:12:36;97950.81;;;22.90;49.52
13767;BME280;47980;48.794;9.176;2022-09-09T12:15:25;97931.44;;;23.18;48.38
13767;BME280;47980;48.794;9.176;2022-09-09T12:18:01;97930.22;;;22.99;48.77
13767;BME280;47980;48.794;9.176;2022-09-09T12:20:34;97932.28;;;22.38;49.07
13767;BME280;47980;48.794;9.176;2022-09-09T12:23:32;97931.50;;;23.15;48.71
13767;BME280;47980;48.794;9.176;2022-09-09T12:26:20;97920.84;;;23.27;47.53
13767;BME280;47980;48.794;9.176;2022-09-09T12:29:11;97923.03;;;23.13;48.29
13767;BME280;47980;48.794;9.176;2022-09-09T12:31:46;97918.59;;;23.66;48.31
13767;BME280;47980;48.794;9.176;2022-09-09T12:34:32;97911.81;;;23.77;46.49
13767;BME280;47980;48.794;9.176;2022-09-09T12:37:16;97913.63;;;24.04;46.41
13767;BME280;47980;48.794;9.176;2022-09-09T12:39:52;97931.81;;;24.03;45.03
13767;BME280;47980;48.794;9.176;2022-09-09T12:42:27;97919.53;;;23.79;44.62
13767;BME280;47980;48.794;9.176;2022-09-09T12:45:02;97916.41;;;23.81;45.62
13767;BME280;47980;48.794;9.176;2022-09-09T12:47:39;97923.28;;;24.05;44.98
13767;BME280;47980;48.794;9.176;2022-09-09T12:50:23;97911.81;;;23.34;46.28
13767;BME280;47980;48.794;9.176;2022-09-09T12:52:59;97915.34;;;23.74;45.33
13767;BME280;47980;48.794;9.176;2022-09-09T12:55:35;97898.84;;;23.45;46.51
13767;BME280;47980;48.794;9.176;2022-09-09T12:58:13;97898.47;;;23.23;47.80
13767;BME280;47980;48.794;9.176;2022-09-09T13:01:01;97894.84;;;23.53;47.90
13767;BME280;47980;48.794;9.176;2022-09-09T13:03:42;97887.50;;;23.94;46.80
13767;BME280;47980;48.794;9.176;2022-09-09T13:06:20;97894.34;;;23.39;47.20
13767;BME280;47980;48.794;9.176;2022-09-09T13:09:03;97880.94;;;23.75;46.98
13767;BME280;47980;48.794;9.176;2022-09-09T13:11:37;97896.97;;;23.86;45.53
13767;BME280;47980;48.794;9.176;2022-09-09T13:14:18;97887.06;;;23.95;45.87
13767;BME280;47980;48.794;9.176;2022-09-09T13:16:58;97886.75;;;23.93;46.41
13767;BME280;47980;48.794;9.176;2022-09-09T13:19:33;97881.72;;;24.28;45.34
13767;BME280;47980;48.794;9.176;2022-09-09T13:25:30;97881.94;;;23.81;46.39
13767;BME280;47980;48.794;9.176;2022-09-09T13:28:25;97881.13;;;24.20;46.41
13767;BME280;47980;48.794;9.176;2022-09-09T13:31:00;97879.78;;;23.92;46.86
13767;BME280;47980;48.794;9.176;2022-09-09T13:33:34;97881.34;;;24.46;46.18
13767;BME280;47980;48.794;9.176;2022-09-09T13:36:09;97875.44;;;24.84;45.79
13767;BME280;47980;48.794;9.176;2022-09-09T13:38:53;97868.84;;;24.32;45.69
13767;BME280;47980;48.794;9.176;2022-09-09T13:41:29;97865.91;;;24.07;45.99
13767;BME280;47980;48.794;9.176;2022-09-09T13:44:02;97872.47;;;24.25;45.56
13767;BME280;47980;48.794;9.176;2022-09-09T13:46:38;97871.84;;;24.01;45.38
13767;BME280;47980;48.794;9.176;2022-09-09T13:49:20;97863.38;;;23.40;46.26
13767;BME280;47980;48.794;9.176;2022-09-09T13:52:04;97864.59;;;23.15;45.96
13767;BME280;47980;48.794;9.176;2022-09-09T13:54:36;97856.53;;;23.75;45.90
13767;BME280;47980;48.794;9.176;2022-09-09T13:57:14;97858.78;;;23.96;45.37
13767;BME280;47980;48.794;9.176;2022-09-09T13:59:48;97861.44;;;24.69;43.34
13767;BME280;47980;48.794;9.176;2022-09-09T14:02:21;97853.38;;;24.49;43.35
13767;BME280;47980;48.794;9.176;2022-09-09T14:04:53;97856.84;;;24.49;43.59
13767;BME280;47980;48.794;9.176;2022-09-09T14:07:27;97851.75;;;24.68;43.19
13767;BME280;47980;48.794;9.176;2022-09-09T14:09:59;97863.78;;;24.50;43.65
13767;BME280;47980;48.794;9.176;2022-09-09T14:12:31;97858.81;;;24.49;44.10
13767;BME280;47980;48.794;9.176;2022-09-09T14:15:03;97861.59;;;24.78;43.14
13767;BME280;47980;48.794;9.176;2022-09-09T14:17:36;97875.06;;;24.65;41.84
13767;BME280;47980;48.794;9.176;2022-09-09T14:20:09;97847.94;;;24.65;42.46
13767;BME280;47980;48.794;9.176;2022-09-09T14:22:42;97863.06;;;24.66;41.32
13767;BME280;47980;48.794;9.176;2022-09-09T14:25:14;97857.78;;;23.70;43.84
13767;BME280;47980;48.794;9.176;2022-09-09T14:27:46;97852.97;;;23.58;43.44
13767;BME280;47980;48.794;9.176;2022-09-09T14:30:17;97847.25;;;23.13;43.83
13767;BME280;47980;48.794;9.176;2022-09-09T14:32:50;97863.72;;;23.22;44.71
13767;BME280;47980;48.794;9.176;2022-09-09T14:35:22;97850.38;;;23.31;45.81
13767;BME280;47980;48.794;9.176;2022-09-09T14:37:54;97862.06;;;23.48;44.97
13767;BME280;47980;48.794;9.176;2022-09-09T14:40:26;97851.31;;;23.44;43.52
13767;BME280;47980;48.794;9.176;2022-09-09T14:42:58;97856.72;;;23.44;43.89
13767;BME280;47980;48.794;9.176;2022-09-09T14:45:30;97847.56;;;23.58;43.89
13767;BME280;47980;48.794;9.176;2022-09-09T14:48:03;97849.66;;;23.50;43.62
13767;BME280;47980;48.794;9.176;2022-09-09T14:50:34;97850.66;;;23.96;42.93
13767;BME280;47980;48.794;9.176;2022-09-09T14:53:10;97846.28;;;23.63;43.70
13767;BME280;47980;48.794;9.176;2022-09-09T14:55:42;97847.72;;;24.07;42.91
13767;BME280;47980;48.794;9.176;2022-09-09T14:58:13;97858.38;;;23.78;43.59
13767;BME280;47980;48.794;9.176;2022-09-09T15:00:45;97856.56;;;23.91;42.18
13767;BME280;47980;48.794;9.176;2022-09-09T15:03:18;97860.25;;;24.17;41.51
13767;BME280;47980;48.794;9.176;2022-09-09T15:05:49;97856.19;;;24.45;41.95
13767;BME280;47980;48.794;9.176;2022-09-09T15:08:21;97863.69;;;24.38;41.46
13767;BME280;47980;48.794;9.176;2022-09-09T15:10:59;97864.19;;;24.33;41.79
13767;BME280;47980;48.794;9.176;2022-09-09T15:13:30;97869.63;;;23.96;42.38
13767;BME280;47980;48.794;9.176;2022-09-09T15:16:06;97862.19;;;23.21;43.45
13767;BME280;47980;48.794;9.176;2022-09-09T15:18:40;97868.81;;;23.16;43.43
13767;BME280;47980;48.794;9.176;2022-09-09T15:21:14;97857.28;;;22.92;44.06
13767;BME280;47980;48.794;9.176;2022-09-09T15:23:46;97862.25;;;23.17;44.37
13767;BME280;47980;48.794;9.176;2022-09-09T15:26:18;97864.56;;;23.39;44.26
13767;BME280;47980;48.794;9.176;2022-09-09T15:28:50;97864.59;;;23.15;44.42
13767;BME280;47980;48.794;9.176;2022-09-09T15:31:25;97865.50;;;22.85;44.86
13767;BME280;47980;48.794;9.176;2022-09-09T15:34:01;97861.53;;;22.90;45.05
13767;BME280;47980;48.794;9.176;2022-09-09T15:36:34;97856.72;;;23.64;43.32
13767;BME280;47980;48.794;9.176;2022-09-09T15:39:07;97854.53;;;23.79;43.36
13767;BME280;47980;48.794;9.176;2022-09-09T15:41:40;97850.66;;;23.57;43.88
13767;BME280;47980;48.794;9.176;2022-09-09T15:44:11;97857.41;;;23.28;44.08
13767;BME280;47980;48.794;9.176;2022-09-09T15:46:48;97860.50;;;23.27;44.35
13767;BME280;47980;48.794;9.176;2022-09-09T15:49:23;97870.50;;;23.10;45.54
13767;BME280;47980;48.794;9.176;2022-09-09T15:51:57;97874.59;;;22.71;46.24
13767;BME280;47980;48.794;9.176;2022-09-09T15:54:31;97866.28;;;22.58;46.16
13767;BME280;47980;48.794;9.176;2022-09-09T15:57:06;97866.59;;;22.41;46.82
13767;BME280;47980;48.794;9.176;2022-09-09T15:59:38;97872.84;;;22.34;47.02
13767;BME280;47980;48.794;9.176;2022-09-09T16:02:10;97861.56;;;22.39;47.86
13767;BME280;47980;48.794;9.176;2022-09-09T16:04:43;97865.09;;;22.36;48.17
13767;BME280;47980;48.794;9.176;2022-09-09T16:07:15;97867.53;;;22.27;47.15
13767;BME280;47980;48.794;9.176;2022-09-09T16:09:46;97877.00;;;22.11;47.94
13767;BME280;47980;48.794;9.176;2022-09-09T16:12:18;97875.03;;;22.16;47.78
13767;BME280;47980;48.794;9.176;2022-09-09T16:14:49;97884.03;;;22.05;47.77
13767;BME280;47980;48.794;9.176;2022-09-09T16:17:21;97891.41;;;22.01;47.66
13767;BME280;47980;48.794;9.176;2022-09-09T16:19:55;97888.28;;;22.03;47.42
13767;BME280;47980;48.794;9.176;2022-09-09T16:22:27;97895.72;;;21.95;47.74
13767;BME280;47980;48.794;9.176;2022-09-09T16:24:59;97894.13;;;22.01;47.51
13767;BME280;47980;48.794;9.176;2022-09-09T16:27:30;97897.28;;;21.93;47.45
13767;BME280;47980;48.794;9.176;2022-09-09T16:30:02;97899.16;;;21.99;48.20
13767;BME280;47980;48.794;9.176;2022-09-09T16:32:34;97902.47;;;21.80;49.12
13767;BME280;47980;48.794;9.176;2022-09-09T16:35:08;97920.69;;;21.72;48.58
13767;BME280;47980;48.794;9.176;2022-09-09T16:37:39;97922.00;;;21.15;51.41
13767;BME280;47980;48.794;9.176;2022-09-09T16:40:12;97920.88;;;21.09;50.95
13767;BME280;47980;48.794;9.176;2022-09-09T16:42:43;97925.38;;;20.82;52.00
13767;BME280;47980;48.794;9.176;2022-09-09T16:45:15;97921.25;;;20.66;52.54
13767;BME280;47980;48.794;9.176;2022-09-09T16:47:48;97931.97;;;20.74;51.74
13767;BME280;47980;48.794;9.176;2022-09-09T16:50:21;97932.03;;;20.66;52.45
13767;BME280;47980;48.794;9.176;2022-09-09T16:52:53;97934.25;;;20.75;50.54
13767;BME280;47980;48.794;9.176;2022-09-09T16:55:24;97934.25;;;20.79;50.48
13767;BME280;47980;48.794;9.176;2022-09-09T16:57:56;97933.69;;;20.39;52.42
13767;BME280;47980;48.794;9.176;2022-09-09T17:00:27;97935.69;;;20.28;54.71
13767;BME280;47980;48.794;9.176;2022-09-09T17:02:59;97940.38;;;20.09;55.63
13767;BME280;47980;48.794;9.176;2022-09-09T17:05:32;97935.38;;;20.04;54.48
13767;BME280;47980;48.794;9.176;2022-09-09T17:08:04;97932.59;;;20.29;55.81
13767;BME280;47980;48.794;9.176;2022-09-09T17:10:40;97933.81;;;20.17;57.47
13767;BME280;47980;48.794;9.176;2022-09-09T17:13:12;97940.16;;;19.61;57.35
13767;BME280;47980;48.794;9.176;2022-09-09T17:15:43;97930.94;;;19.65;56.94
13767;BME280;47980;48.794;9.176;2022-09-09T17:18:15;97945.50;;;19.75;55.74
13767;BME280;47980;48.794;9.176;2022-09-09T17:20:48;97934.78;;;19.50;56.68
13767;BME280;47980;48.794;9.176;2022-09-09T17:23:20;97945.59;;;19.14;58.23
13767;BME280;47980;48.794;9.176;2022-09-09T17:25:56;97934.41;;;19.34;59.30
13767;BME280;47980;48.794;9.176;2022-09-09T17:28:28;97930.22;;;19.00;59.32
13767;BME280;47980;48.794;9.176;2022-09-09T17:31:01;97932.91;;;19.08;59.05
13767;BME280;47980;48.794;9.176;2022-09-09T17:33:37;97933.66;;;18.97;59.68
13767;BME280;47980;48.794;9.176;2022-09-09T17:36:13;97935.97;;;19.06;59.41
13767;BME280;47980;48.794;9.176;2022-09-09T17:38:45;97937.88;;;18.84;60.30
13767;BME280;47980;48.794;9.176;2022-09-09T17:41:19;97942.06;;;18.60;61.46
13767;BME280;47980;48.794;9.176;2022-09-09T17:43:51;97946.28;;;18.58;61.33
13767;BME280;47980;48.794;9.176;2022-09-09T17:46:27;97959.00;;;18.79;61.30
13767;BME280;47980;48.794;9.176;2022-09-09T17:49:00;97961.31;;;18.84;60.73
13767;BME280;47980;48.794;9.176;2022-09-09T17:51:34;97963.63;;;18.78;61.89